createdAt,value
2022-08-05T04:07:33.057Z,95641.56
2022-08-05T04:10:03.002Z,95646.81
2022-08-05T04:12:31.557Z,95646.97
2022-08-05T04:15:00.663Z,95638.09
2022-08-05T04:17:55.395Z,95642.09
2022-08-05T04:20:21.025Z,95655.28
2022-08-05T04:22:52.413Z,95645.53
2022-08-05T04:25:38.495Z,95661.34
2022-08-05T04:28:13.833Z,95690.94
2022-08-05T04:30:42.971Z,95693.97
2022-08-05T04:33:10.757Z,95702.50
2022-08-05T04:36:16.764Z,95695.25
2022-08-05T04:38:40.013Z,95695.06
2022-08-05T04:41:09.540Z,95717.22
2022-08-05T04:43:40.500Z,95697.00
2022-08-05T04:46:14.572Z,95701.66
2022-08-05T04:48:58.726Z,95711.03
2022-08-05T04:51:30.539Z,95714.84
2022-08-05T04:54:01.484Z,95691.50
2022-08-05T04:56:34.568Z,95697.88
2022-08-05T04:59:21.544Z,95689.81
2022-08-05T05:02:05.792Z,95703.06
2022-08-05T05:04:43.762Z,95702.00
2022-08-05T05:07:12.243Z,95701.78
2022-08-05T05:10:10.278Z,95713.53
2022-08-05T05:12:38.393Z,95721.38
2022-08-05T05:15:10.620Z,95727.28
2022-08-05T05:17:56.657Z,95719.00
2022-08-05T05:20:28.495Z,95729.97
2022-08-05T05:22:56.924Z,95719.69
2022-08-05T05:25:32.807Z,95724.56
2022-08-05T05:28:08.813Z,95707.09
2022-08-05T05:35:03.110Z,95722.31
2022-08-05T05:38:00.321Z,95713.25
2022-08-05T05:40:20.269Z,95726.19
2022-08-05T05:42:49.695Z,95714.00
2022-08-05T05:46:13.734Z,95729.22
2022-08-05T05:48:44.524Z,95727.09
2022-08-05T05:51:15.610Z,95723.06
2022-08-05T05:53:54.615Z,95728.75
2022-08-05T05:56:31.793Z,95723.13
2022-08-05T05:59:05.086Z,95710.94
2022-08-05T06:01:37.108Z,95707.59
2022-08-05T06:04:07.945Z,95714.59
2022-08-05T06:06:36.287Z,95723.56
2022-08-05T06:09:05.133Z,95719.19
2022-08-05T06:11:33.426Z,95726.53
2022-08-05T06:14:02.733Z,95725.75
2022-08-05T06:16:36.776Z,95727.28
2022-08-05T06:19:07.417Z,95729.25
2022-08-05T06:21:38.783Z,95713.19
2022-08-05T06:24:12.193Z,95730.31
2022-08-05T06:26:51.624Z,95728.50
2022-08-05T06:29:26.440Z,95725.78
2022-08-05T06:32:21.239Z,95725.47
2022-08-05T06:34:58.214Z,95723.22
2022-08-05T06:37:56.526Z,95726.69
2022-08-05T06:40:20.919Z,95724.41
2022-08-05T06:42:51.904Z,95720.56
2022-08-05T06:46:04.208Z,95721.41
2022-08-05T06:48:47.162Z,95737.25
2022-08-05T06:50:58.213Z,95746.56
2022-08-05T06:53:29.145Z,95757.41
2022-08-05T06:55:58.239Z,95752.84
2022-08-05T06:58:35.247Z,95748.66
2022-08-05T07:01:08.103Z,95751.72
2022-08-05T07:03:41.379Z,95757.88
2022-08-05T07:06:14.294Z,95749.78
2022-08-05T07:08:47.772Z,95761.34
2022-08-05T07:11:22.468Z,95764.50
2022-08-05T07:14:29.294Z,95766.38
2022-08-05T07:18:01.836Z,95773.69
2022-08-05T07:22:42.348Z,95777.16
2022-08-05T07:25:55.516Z,95786.03
2022-08-05T07:28:07.260Z,95785.28
2022-08-05T07:30:40.067Z,95813.84
2022-08-05T07:33:15.981Z,95806.53
2022-08-05T07:36:01.994Z,95798.38
2022-08-05T07:38:43.694Z,95816.59
2022-08-05T07:42:07.744Z,95811.97
2022-08-05T07:44:14.391Z,95822.03
2022-08-05T07:46:48.416Z,95820.50
2022-08-05T07:49:21.119Z,95827.84
2022-08-05T07:51:54.038Z,95835.19
2022-08-05T07:54:31.082Z,95835.56
2022-08-05T07:57:17.814Z,95840.97
2022-08-05T07:59:49.595Z,95846.41
2022-08-05T08:02:18.252Z,95851.41
2022-08-05T08:04:49.407Z,95857.97
2022-08-05T08:07:18.285Z,95853.31
2022-08-05T08:09:52.357Z,95871.88
2022-08-05T08:12:35.158Z,95871.50
2022-08-05T08:15:13.830Z,95871.91
2022-08-05T08:17:49.718Z,95869.59
2022-08-05T08:20:43.507Z,95873.44
2022-08-05T08:23:59.828Z,95885.03
2022-08-05T08:26:04.714Z,95878.84
2022-08-05T08:28:36.793Z,95892.75
2022-08-05T08:31:20.391Z,95900.09
2022-08-05T08:33:51.634Z,95888.94
2022-08-05T08:36:37.645Z,95910.56
2022-08-05T08:39:15.443Z,95920.22
2022-08-05T08:41:52.459Z,95918.66
2022-08-05T08:45:18.772Z,95919.03
2022-08-05T08:48:05.702Z,95905.13
2022-08-05T08:50:30.651Z,95899.31
2022-08-05T08:53:07.920Z,95924.84
2022-08-05T08:56:03.838Z,95924.44
2022-08-05T08:58:36.956Z,95927.91
2022-08-05T09:01:07.436Z,95908.97
2022-08-05T09:03:45.414Z,95902.78
2022-08-05T09:06:17.234Z,95926.38
2022-08-05T09:08:49.302Z,95929.88
2022-08-05T09:11:17.133Z,95936.81
2022-08-05T09:14:54.359Z,95937.59
2022-08-05T09:16:52.612Z,95924.47
2022-08-05T09:19:20.438Z,95934.53
2022-08-05T09:22:22.849Z,95943.81
2022-08-05T09:24:58.371Z,95938.41
2022-08-05T09:28:03.961Z,95941.50
2022-08-05T09:30:23.245Z,95948.06
